Time;durP1;ratioP1;P1;durP2;ratioP2;P2;SDS_P1;SDS_P2;PMS_P1;PMS_P2;Temp;Humidity;BMP_temperature;BMP_pressure;BME280_temperature;BME280_humidity;BME280_pressure;Samples;Min_cycle;Max_cycle;Signal;HPM_P1;HPM_P2
2022/08/23 00:01:33;;;;;;;12.43;5.38;;;18.60;99.90;;;;;;5015172;28;20430;-71
2022/08/23 00:04:07;;;;;;;10.63;5.38;;;18.90;99.90;;;;;;5031193;28;20041;-71
2022/08/23 00:06:33;;;;;;;11.00;5.00;;;18.80;99.90;;;;;;5031571;28;20488;-71
2022/08/23 00:08:58;;;;;;;9.10;5.07;;;19.60;99.90;;;;;;5031941;28;20034;-71
2022/08/23 00:11:32;;;;;;;9.75;5.18;;;18.80;99.90;;;;;;5032882;28;20034;-71
2022/08/23 00:14:03;;;;;;;13.80;5.93;;;18.90;99.90;;;;;;5031570;28;20471;-71
2022/08/23 00:16:29;;;;;;;10.45;5.75;;;18.70;99.90;;;;;;5015295;28;20045;-71
2022/08/23 00:18:55;;;;;;;9.98;5.38;;;18.70;99.90;;;;;;5031828;28;20112;-71
2022/08/23 00:21:21;;;;;;;13.57;5.72;;;19.30;99.90;;;;;;5031969;28;20491;-71
2022/08/23 00:23:46;;;;;;;9.77;5.47;;;18.60;99.90;;;;;;5031430;28;20120;-71
2022/08/23 00:26:12;;;;;;;8.52;5.10;;;18.70;99.90;;;;;;5031546;28;20037;-71
2022/08/23 00:28:38;;;;;;;9.07;5.30;;;18.60;99.90;;;;;;5032968;28;20033;-71
2022/08/23 00:31:04;;;;;;;10.85;4.97;;;19.50;99.90;;;;;;5031740;28;20522;-71
2022/08/23 00:33:29;;;;;;;10.40;5.22;;;18.80;99.90;;;;;;5015151;28;20095;-71
2022/08/23 00:35:55;;;;;;;11.95;5.72;;;18.40;99.90;;;;;;5031163;28;20076;-71
2022/08/23 00:38:20;;;;;;;8.73;4.93;;;18.60;99.90;;;;;;5032707;28;20048;-71
2022/08/23 00:40:49;;;;;;;8.10;4.80;;;19.00;99.90;;;;;;5031434;28;20088;-71
2022/08/23 00:49:28;;;;;;;12.25;5.45;;;18.50;99.90;;;;;;5032123;28;20073;-71
2022/08/23 00:52:02;;;;;;;9.40;4.97;;;18.50;99.90;;;;;;5030751;28;20049;-71
2022/08/23 00:54:29;;;;;;;19.42;5.80;;;18.60;99.90;;;;;;5030931;28;20403;-71
2022/08/23 00:56:58;;;;;;;11.90;5.43;;;19.10;99.90;;;;;;5030767;28;20041;-71
2022/08/23 00:59:25;;;;;;;9.55;5.43;;;18.40;99.90;;;;;;5030659;28;20038;-71
2022/08/23 01:01:51;;;;;;;12.32;5.50;;;18.30;99.90;;;;;;5030531;28;20033;-71
2022/08/23 01:04:18;;;;;;;10.60;4.85;;;18.40;99.90;;;;;;5031574;28;20033;-69
2022/08/23 01:06:54;;;;;;;11.73;5.05;;;18.40;99.90;;;;;;5014222;28;20120;-71
2022/08/23 01:09:21;;;;;;;13.55;5.53;;;18.40;99.90;;;;;;5030519;28;20037;-71
2022/08/23 01:12:05;;;;;;;13.05;5.22;;;18.60;99.90;;;;;;5030943;28;20053;-71
2022/08/23 01:14:43;;;;;;;13.23;6.03;;;18.30;99.90;;;;;;5031419;28;20048;-71
2022/08/23 01:17:39;;;;;;;10.55;5.47;;;18.20;99.90;;;;;;5014462;28;20041;-71
2022/08/23 01:20:12;;;;;;;9.95;5.35;;;18.30;99.90;;;;;;5025294;28;20054;-71
2022/08/23 01:23:06;;;;;;;7.85;4.63;;;19.00;99.90;;;;;;5030753;28;20395;-71
2022/08/23 01:25:33;;;;;;;12.82;5.97;;;18.30;99.90;;;;;;5030144;28;20072;-71
2022/08/23 01:27:59;;;;;;;11.27;5.28;;;18.80;99.90;;;;;;5013881;28;20084;-71
2022/08/23 01:30:30;;;;;;;10.93;5.50;;;19.00;99.90;;;;;;5031685;28;20499;-71
2022/08/23 01:32:59;;;;;;;13.07;6.22;;;18.30;99.90;;;;;;5030219;28;20558;-71
2022/08/23 01:35:34;;;;;;;11.13;6.65;;;18.40;99.90;;;;;;5031151;28;20487;-71
2022/08/23 01:37:59;;;;;;;9.57;5.43;;;18.10;99.90;;;;;;5030255;28;20037;-71
2022/08/23 01:40:25;;;;;;;13.65;5.50;;;18.10;99.90;;;;;;5030211;28;20392;-71
2022/08/23 01:42:51;;;;;;;14.68;6.20;;;18.20;99.90;;;;;;5030440;28;20049;-71
2022/08/23 01:45:17;;;;;;;13.18;5.55;;;17.90;99.90;;;;;;5031288;28;20037;-71
2022/08/23 01:47:42;;;;;;;12.65;6.75;;;18.20;99.90;;;;;;5030305;28;20073;-71
2022/08/23 01:50:10;;;;;;;14.85;6.88;;;18.30;99.90;;;;;;5013618;28;20048;-71
2022/08/23 01:52:37;;;;;;;10.73;5.75;;;18.30;99.90;;;;;;5031212;28;20523;-71
2022/08/23 01:55:04;;;;;;;10.82;6.82;;;17.90;99.90;;;;;;5030024;28;20048;-71
2022/08/23 01:57:31;;;;;;;17.35;6.60;;;18.10;99.90;;;;;;5030071;28;20053;-71
2022/08/23 01:59:57;;;;;;;12.00;6.40;;;18.30;99.90;;;;;;5013542;28;20041;-71
2022/08/23 02:02:24;;;;;;;10.50;6.28;;;18.00;99.90;;;;;;5029959;28;20045;-71
2022/08/23 02:04:50;;;;;;;13.55;5.95;;;18.10;99.90;;;;;;5013256;28;20048;-71
2022/08/23 02:07:16;;;;;;;11.30;5.97;;;18.10;99.90;;;;;;5030119;28;20466;-71
2022/08/23 02:09:41;;;;;;;11.65;5.70;;;17.90;99.90;;;;;;5029936;28;20048;-71
2022/08/23 02:12:07;;;;;;;10.95;6.68;;;17.90;99.90;;;;;;5029949;28;20076;-71
2022/08/23 02:14:35;;;;;;;14.98;6.78;;;18.00;99.90;;;;;;5033328;28;20048;-69
2022/08/23 02:17:02;;;;;;;12.05;6.30;;;17.90;99.90;;;;;;5034758;28;20045;-69
2022/08/23 02:19:27;;;;;;;15.50;7.40;;;17.80;99.90;;;;;;5033628;28;20041;-70
2022/08/23 02:21:53;;;;;;;15.45;7.20;;;18.90;99.90;;;;;;5017345;28;20264;-69
2022/08/23 02:24:21;;;;;;;11.02;7.20;;;18.50;99.90;;;;;;5034465;28;20113;-69
2022/08/23 02:26:51;;;;;;;10.45;7.35;;;17.90;99.90;;;;;;5034660;28;20048;-70
2022/08/23 02:29:19;;;;;;;10.52;6.45;;;17.80;99.90;;;;;;5016942;28;20045;-69
2022/08/23 02:31:46;;;;;;;10.32;7.00;;;18.90;99.90;;;;;;5034482;28;20041;-70
2022/08/23 02:34:12;;;;;;;10.30;7.40;;;18.40;99.90;;;;;;5032819;28;20041;-69
2022/08/23 02:36:38;;;;;;;9.90;7.38;;;18.30;99.90;;;;;;5033240;28;20518;-69
2022/08/23 02:39:05;;;;;;;11.75;7.28;;;18.60;99.90;;;;;;5034416;28;20128;-70
2022/08/23 02:41:32;;;;;;;13.50;7.30;;;17.80;99.90;;;;;;5016742;28;20103;-69
2022/08/23 02:43:57;;;;;;;14.48;7.70;;;17.70;99.90;;;;;;5016497;28;20048;-69
2022/08/23 02:46:23;;;;;;;11.25;7.53;;;17.60;99.90;;;;;;5032946;28;20033;-69
2022/08/23 02:48:49;;;;;;;14.25;7.57;;;17.40;99.90;;;;;;5016884;28;20041;-69
2022/08/23 02:51:16;;;;;;;11.57;8.07;;;17.50;99.90;;;;;;5033092;28;20033;-69
2022/08/23 02:53:42;;;;;;;13.98;7.57;;;17.40;99.90;;;;;;5032802;28;20049;-71
2022/08/23 02:56:09;;;;;;;14.63;7.93;;;17.50;99.90;;;;;;5032624;28;20044;-69
2022/08/23 02:58:35;;;;;;;10.93;7.07;;;17.40;99.90;;;;;;5032823;28;20037;-69
2022/08/23 03:01:01;;;;;;;14.40;7.60;;;17.30;99.90;;;;;;5032599;28;20569;-70
2022/08/23 03:03:28;;;;;;;18.63;8.50;;;18.50;99.90;;;;;;5032586;28;20041;-70
2022/08/23 03:05:54;;;;;;;12.15;8.13;;;17.60;99.90;;;;;;5015877;28;20037;-69
2022/08/23 03:08:20;;;;;;;13.07;7.65;;;18.60;99.90;;;;;;5032859;28;20403;-70
2022/08/23 03:10:49;;;;;;;12.52;8.55;;;18.60;99.90;;;;;;5032604;28;20041;-69
2022/08/23 03:13:16;;;;;;;13.25;8.80;;;17.50;99.90;;;;;;5015832;28;20038;-69
2022/08/23 03:15:41;;;;;;;12.07;8.18;;;18.40;99.90;;;;;;5032039;28;20037;-69
2022/08/23 03:18:09;;;;;;;15.00;8.38;;;17.40;99.90;;;;;;5032465;28;20037;-69
2022/08/23 03:20:35;;;;;;;13.23;8.15;;;17.40;99.90;;;;;;5032278;28;20072;-69
2022/08/23 03:23:01;;;;;;;11.27;8.50;;;17.30;99.90;;;;;;5032536;28;20483;-69
2022/08/23 03:25:27;;;;;;;15.20;10.55;;;17.40;99.90;;;;;;5015191;28;20037;-69
2022/08/23 03:27:53;;;;;;;14.32;9.43;;;17.80;99.90;;;;;;5032198;28;20123;-70
2022/08/23 03:30:19;;;;;;;13.13;9.43;;;17.40;99.90;;;;;;5032230;28;20041;-69
2022/08/23 03:32:44;;;;;;;12.90;8.70;;;17.20;99.90;;;;;;5033266;28;20049;-70
2022/08/23 03:35:10;;;;;;;15.00;9.48;;;17.40;99.90;;;;;;5031962;28;20048;-69
2022/08/23 03:37:36;;;;;;;15.75;9.55;;;17.30;99.90;;;;;;5033576;28;20229;-69
2022/08/23 03:40:03;;;;;;;10.70;8.02;;;17.80;99.90;;;;;;5033191;28;20454;-69
2022/08/23 03:42:29;;;;;;;11.18;8.57;;;17.40;99.90;;;;;;5033356;28;20042;-69
2022/08/23 03:44:55;;;;;;;15.27;9.70;;;17.20;99.90;;;;;;5031451;28;20044;-69
2022/08/23 03:47:20;;;;;;;12.95;8.57;;;17.40;99.90;;;;;;5033331;28;20410;-70
2022/08/23 03:49:46;;;;;;;12.77;8.35;;;17.40;99.90;;;;;;5033186;28;20476;-69
2022/08/23 03:52:12;;;;;;;16.60;8.95;;;17.20;99.90;;;;;;5015596;28;20037;-69
2022/08/23 03:54:37;;;;;;;12.82;8.95;;;17.30;99.90;;;;;;5015093;28;20128;-70
2022/08/23 03:57:08;;;;;;;12.38;9.10;;;17.30;99.90;;;;;;5031679;28;20041;-71
2022/08/23 03:59:35;;;;;;;16.50;9.38;;;17.10;99.90;;;;;;5031996;28;20176;-70
2022/08/23 04:02:01;;;;;;;14.13;9.10;;;17.10;99.90;;;;;;5031609;28;20212;-70
2022/08/23 04:04:27;;;;;;;13.05;9.52;;;17.20;99.90;;;;;;5032525;28;20038;-70
2022/08/23 04:06:52;;;;;;;13.60;8.40;;;17.10;99.90;;;;;;5031431;28;20045;-70
2022/08/23 04:09:18;;;;;;;12.65;8.98;;;17.00;99.90;;;;;;5031568;28;20041;-70
2022/08/23 04:11:44;;;;;;;17.23;9.38;;;17.40;99.90;;;;;;5031299;28;20040;-71
2022/08/23 04:14:12;;;;;;;14.35;9.85;;;17.40;99.90;;;;;;5032127;28;20041;-69
2022/08/23 04:16:39;;;;;;;20.85;10.65;;;16.90;99.90;;;;;;5032816;28;20347;-70
2022/08/23 04:19:11;;;;;;;17.88;10.48;;;17.10;99.90;;;;;;5031430;28;20394;-70
2022/08/23 04:21:38;;;;;;;12.57;9.00;;;17.10;99.90;;;;;;5031217;28;20495;-70
2022/08/23 04:24:04;;;;;;;13.50;9.60;;;17.20;99.90;;;;;;5014656;28;20465;-69
2022/08/23 04:26:29;;;;;;;14.75;10.02;;;16.80;99.90;;;;;;5014978;28;20084;-70
2022/08/23 04:28:56;;;;;;;15.18;10.02;;;17.10;99.90;;;;;;5031395;28;20029;-69
2022/08/23 04:31:25;;;;;;;11.60;9.40;;;17.00;99.90;;;;;;5032419;28;20038;-69
2022/08/23 04:33:51;;;;;;;12.45;9.13;;;17.00;99.90;;;;;;5030741;28;20037;-70
2022/08/23 04:36:17;;;;;;;15.55;9.77;;;17.00;99.90;;;;;;5030868;28;20566;-70
2022/08/23 04:38:42;;;;;;;13.10;9.02;;;17.00;99.90;;;;;;5030747;28;20132;-70
2022/08/23 04:43:53;;;;;;;12.75;8.48;;;17.00;99.90;;;;;;5030547;28;20052;-69
2022/08/23 04:46:18;;;;;;;12.52;7.90;;;16.90;99.90;;;;;;5014298;28;20439;-69
2022/08/23 04:48:45;;;;;;;10.93;8.50;;;16.90;99.90;;;;;;5030914;28;20087;-69
2022/08/23 04:51:11;;;;;;;15.48;8.80;;;17.80;99.90;;;;;;5030905;28;20064;-69
2022/08/23 04:53:38;;;;;;;11.65;9.02;;;18.60;99.90;;;;;;5030859;28;20049;-69
2022/08/23 04:56:04;;;;;;;15.15;9.38;;;17.00;99.90;;;;;;5030550;28;20499;-69
2022/08/23 04:58:31;;;;;;;17.63;10.35;;;17.00;99.90;;;;;;5014452;28;20132;-69
2022/08/23 05:00:59;;;;;;;14.38;10.27;;;17.80;99.90;;;;;;5031916;28;20129;-69
2022/08/23 05:03:25;;;;;;;15.52;9.90;;;16.90;99.90;;;;;;5030431;28;20048;-69
2022/08/23 05:05:51;;;;;;;14.95;9.15;;;16.80;99.90;;;;;;5030671;28;20108;-70
2022/08/23 05:08:17;;;;;;;11.30;9.27;;;16.80;99.90;;;;;;5030731;28;20124;-69
2022/08/23 05:10:43;;;;;;;12.35;8.85;;;16.90;99.90;;;;;;5032096;28;20095;-69
2022/08/23 05:13:08;;;;;;;17.08;10.25;;;17.10;99.90;;;;;;5030424;28;20041;-70
2022/08/23 05:15:34;;;;;;;15.02;9.43;;;16.90;99.90;;;;;;5014004;28;20055;-70
2022/08/23 05:18:00;;;;;;;15.65;10.02;;;18.30;99.90;;;;;;5030422;28;20514;-70
2022/08/23 05:20:26;;;;;;;11.30;9.50;;;16.90;99.90;;;;;;5030407;28;20040;-70
2022/08/23 05:22:52;;;;;;;14.43;11.23;;;17.20;99.90;;;;;;5030529;28;20033;-70
2022/08/23 05:25:17;;;;;;;13.60;10.60;;;17.20;99.90;;;;;;5030114;28;20033;-69
2022/08/23 05:27:43;;;;;;;14.05;10.27;;;17.00;99.90;;;;;;5030383;28;20038;-69
2022/08/23 05:30:10;;;;;;;16.15;10.90;;;17.20;99.90;;;;;;5030579;28;20057;-69
2022/08/23 05:32:35;;;;;;;13.95;10.48;;;17.30;99.90;;;;;;5030219;28;20049;-69
2022/08/23 05:35:01;;;;;;;18.00;10.65;;;17.20;99.90;;;;;;5029977;28;20037;-69
2022/08/23 05:37:27;;;;;;;15.25;11.13;;;18.30;99.90;;;;;;5013761;28;20128;-69
2022/08/23 05:39:52;;;;;;;16.90;10.23;;;17.40;99.90;;;;;;5030147;28;20042;-69
2022/08/23 05:42:18;;;;;;;13.50;9.98;;;17.40;99.90;;;;;;5030343;28;20034;-70
2022/08/23 05:44:44;;;;;;;15.00;10.82;;;17.50;99.90;;;;;;5031198;28;20076;-69
2022/08/23 05:47:12;;;;;;;18.48;12.52;;;18.00;99.90;;;;;;5031328;28;20479;-69
2022/08/23 05:49:39;;;;;;;17.00;11.35;;;17.90;99.90;;;;;;5033436;28;20045;-69
2022/08/23 05:52:07;;;;;;;16.63;9.75;;;17.90;99.90;;;;;;5035374;28;20099;-69
2022/08/23 05:54:40;;;;;;;19.13;10.95;;;17.90;99.90;;;;;;5051658;28;20420;-69
2022/08/23 05:57:06;;;;;;;18.05;11.07;;;17.70;99.90;;;;;;5051831;28;20114;-69
2022/08/23 05:59:32;;;;;;;22.20;11.80;;;17.70;99.90;;;;;;5059448;28;20137;-69
2022/08/23 06:01:57;;;;;;;13.80;10.43;;;18.20;99.90;;;;;;5064378;28;20501;-69
2022/08/23 06:04:23;;;;;;;18.58;12.68;;;17.80;99.90;;;;;;5057884;28;20450;-69
2022/08/23 06:06:49;;;;;;;14.30;11.23;;;17.70;99.90;;;;;;5061807;28;20040;-69
2022/08/23 06:09:16;;;;;;;13.80;11.07;;;17.60;99.90;;;;;;5066714;28;20072;-69
2022/08/23 06:11:46;;;;;;;15.23;11.30;;;18.80;99.90;;;;;;5059572;28;20035;-70
2022/08/23 06:14:17;;;;;;;20.42;11.63;;;18.40;99.90;;;;;;5056133;28;20159;-70
2022/08/23 06:16:45;;;;;;;19.05;11.57;;;18.00;99.90;;;;;;5041284;28;20036;-69
2022/08/23 06:19:13;;;;;;;16.05;11.13;;;17.80;99.90;;;;;;5034304;28;20049;-69
2022/08/23 06:21:39;;;;;;;17.88;12.13;;;18.00;99.90;;;;;;5056147;28;20056;-69
2022/08/23 06:24:06;;;;;;;14.38;10.77;;;18.10;99.90;;;;;;5049296;28;20045;-70
2022/08/23 06:26:34;;;;;;;15.80;11.05;;;18.20;99.90;;;;;;5045836;28;20063;-69
2022/08/23 06:29:04;;;;;;;12.50;10.18;;;19.10;99.90;;;;;;5050121;28;20041;-71
2022/08/23 06:31:45;;;;;;;15.73;10.88;;;18.30;99.90;;;;;;5036220;28;20520;-70
2022/08/23 06:34:24;;;;;;;14.18;11.23;;;18.40;99.90;;;;;;5054093;28;20155;-70
2022/08/23 06:36:54;;;;;;;19.60;11.48;;;18.30;99.90;;;;;;5053234;28;20037;-70
2022/08/23 06:39:22;;;;;;;15.85;10.63;;;18.90;99.90;;;;;;5052979;28;20041;-69
2022/08/23 06:41:48;;;;;;;12.07;9.75;;;20.10;99.90;;;;;;5048346;28;20037;-70
2022/08/23 06:44:15;;;;;;;13.27;9.77;;;19.40;99.90;;;;;;5036322;28;20095;-70
2022/08/23 06:46:41;;;;;;;17.88;11.68;;;18.90;99.90;;;;;;5046278;28;20033;-71
2022/08/23 06:49:07;;;;;;;12.57;9.55;;;20.30;99.90;;;;;;5051346;28;20106;-70
2022/08/23 06:51:39;;;;;;;14.38;9.60;;;18.90;99.90;;;;;;5052018;28;20045;-70
2022/08/23 06:54:08;;;;;;;14.03;8.70;;;19.20;99.90;;;;;;5035859;28;20044;-70
2022/08/23 06:56:35;;;;;;;11.70;8.88;;;19.30;99.90;;;;;;5039390;28;20083;-70
2022/08/23 06:59:04;;;;;;;12.63;10.18;;;19.40;99.90;;;;;;5026416;28;20045;-70
2022/08/23 07:01:42;;;;;;;14.40;9.40;;;19.50;99.90;;;;;;5040229;28;20049;-70
2022/08/23 07:04:10;;;;;;;12.32;9.70;;;19.70;99.90;;;;;;5032806;28;20111;-70
2022/08/23 07:06:36;;;;;;;11.98;8.80;;;20.50;99.90;;;;;;5048350;28;20033;-70
2022/08/23 07:09:03;;;;;;;13.82;8.32;;;19.60;99.90;;;;;;5048175;28;20356;-70
2022/08/23 07:11:31;;;;;;;17.13;10.48;;;21.20;99.90;;;;;;5052199;28;20033;-70
2022/08/23 07:13:59;;;;;;;13.27;9.18;;;20.50;99.90;;;;;;5034514;28;20120;-70
2022/08/23 07:16:30;;;;;;;10.32;8.45;;;20.50;99.90;;;;;;5053645;28;20094;-70
2022/08/23 07:18:56;;;;;;;11.85;8.80;;;20.70;99.90;;;;;;5051843;28;20037;-69
2022/08/23 07:21:22;;;;;;;12.60;7.15;;;20.50;99.90;;;;;;5032091;28;20041;-70
2022/08/23 07:23:47;;;;;;;16.20;10.23;;;20.60;99.90;;;;;;5032958;28;20076;-70
2022/08/23 07:26:14;;;;;;;9.38;7.60;;;21.40;99.90;;;;;;5031200;28;20124;-70
2022/08/23 07:28:41;;;;;;;14.07;8.80;;;21.30;99.90;;;;;;5031783;28;20056;-70
2022/08/23 07:31:29;;;;;;;9.52;7.32;;;21.70;99.90;;;;;;5031863;28;20053;-71
2022/08/23 07:33:57;;;;;;;10.65;7.13;;;21.10;99.90;;;;;;5045007;28;20045;-71
2022/08/23 07:36:27;;;;;;;11.35;6.90;;;22.20;99.90;;;;;;5046685;28;20037;-70
2022/08/23 07:38:54;;;;;;;10.38;6.43;;;21.40;99.90;;;;;;5040841;28;20069;-70
2022/08/23 07:41:29;;;;;;;11.90;6.40;;;21.90;99.90;;;;;;5015013;28;20037;-71
2022/08/23 07:43:57;;;;;;;7.90;6.30;;;22.20;99.90;;;;;;5017841;28;20490;-71
2022/08/23 07:46:24;;;;;;;7.90;5.90;;;21.50;99.90;;;;;;5037230;28;20037;-71
2022/08/23 07:48:50;;;;;;;9.32;5.75;;;21.80;99.90;;;;;;5032104;28;20117;-71
2022/08/23 07:51:16;;;;;;;9.50;5.82;;;22.80;99.90;;;;;;5040083;28;20120;-71
2022/08/23 07:53:42;;;;;;;8.43;5.10;;;22.50;99.90;;;;;;5044544;28;20120;-70
2022/08/23 07:56:10;;;;;;;8.68;5.15;;;22.20;99.90;;;;;;5047181;28;20048;-71
2022/08/23 07:58:35;;;;;;;7.63;5.03;;;22.70;99.90;;;;;;5036439;28;20045;-72
2022/08/23 08:01:19;;;;;;;8.95;4.88;;;22.30;99.90;;;;;;5031315;28;20042;-70
2022/08/23 08:03:45;;;;;;;;;;;22.20;99.90;;;;;;5039955;28;20034;-70
2022/08/23 08:06:17;;;;;;;6.68;4.60;;;22.20;99.90;;;;;;5048527;28;19921;-70
2022/08/23 08:08:43;;;;;;;8.23;4.63;;;22.40;99.90;;;;;;5049667;28;20036;-69
2022/08/23 08:11:11;;;;;;;8.63;4.90;;;23.10;99.90;;;;;;5018265;28;20037;-70
2022/08/23 08:13:39;;;;;;;5.72;4.38;;;22.80;99.90;;;;;;5031377;28;20049;-72
2022/08/23 08:16:05;;;;;;;7.20;4.25;;;23.20;99.90;;;;;;5044277;28;20045;-72
2022/08/23 08:18:31;;;;;;;7.95;4.30;;;22.70;99.90;;;;;;5045685;28;20045;-72
2022/08/23 08:20:56;;;;;;;6.88;4.43;;;22.50;99.90;;;;;;5051499;28;20049;-72
2022/08/23 08:23:22;;;;;;;7.32;5.03;;;22.40;99.90;;;;;;5049890;28;20116;-72
2022/08/23 08:25:47;;;;;;;5.63;4.18;;;22.60;99.90;;;;;;5046690;28;20112;-72
2022/08/23 08:28:13;;;;;;;6.72;4.38;;;22.80;99.90;;;;;;5039018;28;20041;-72
2022/08/23 08:30:39;;;;;;;7.90;4.82;;;23.10;99.90;;;;;;5040114;28;20463;-72
2022/08/23 08:33:04;;;;;;;9.93;5.28;;;23.30;99.90;;;;;;5041648;28;20044;-71
2022/08/23 08:35:30;;;;;;;8.55;4.75;;;23.70;99.90;;;;;;5017870;28;20041;-71
2022/08/23 08:37:56;;;;;;;8.65;4.28;;;24.20;99.90;;;;;;5051357;28;20406;-71
2022/08/23 08:40:30;;;;;;;5.63;4.22;;;24.30;99.90;;;;;;5052012;28;20045;-71
2022/08/23 08:43:33;;;;;;;8.98;5.15;;;24.40;99.90;;;;;;5033855;28;20041;-71
2022/08/23 08:46:02;;;;;;;8.48;5.93;;;23.40;99.90;;;;;;5048863;28;20037;-70
2022/08/23 08:48:32;;;;;;;7.03;4.47;;;24.00;99.90;;;;;;5030357;28;20041;-71
2022/08/23 08:51:04;;;;;;;7.47;4.55;;;24.20;99.90;;;;;;5032147;28;20053;-71
2022/08/23 08:53:43;;;;;;;7.40;4.63;;;24.10;99.90;;;;;;5014182;28;20128;-71
2022/08/23 08:56:25;;;;;;;8.55;4.85;;;24.30;99.90;;;;;;5031763;28;20041;-71
2022/08/23 08:58:54;;;;;;;8.15;4.85;;;24.00;99.90;;;;;;5014493;28;20073;-71
2022/08/23 09:01:23;;;;;;;6.50;4.13;;;24.70;99.90;;;;;;5032062;28;20077;-71
2022/08/23 09:03:49;;;;;;;8.25;4.50;;;24.20;99.90;;;;;;5032938;28;20029;-71
2022/08/23 09:06:34;;;;;;;12.05;5.18;;;24.40;99.90;;;;;;5027470;28;20446;-71
2022/08/23 09:09:34;;;;;;;8.18;4.60;;;24.20;99.90;;;;;;5049486;28;20045;-71
2022/08/23 09:12:18;;;;;;;7.88;4.32;;;24.70;99.90;;;;;;5016533;28;20038;-72
2022/08/23 09:15:31;;;;;;;6.28;3.50;;;24.30;99.90;;;;;;5031366;28;20080;-72
2022/08/23 09:18:06;;;;;;;7.60;3.22;;;24.60;99.90;;;;;;5028067;28;20049;-72
2022/08/23 09:20:32;;;;;;;5.97;3.55;;;24.50;99.90;;;;;;5014068;28;20518;-72
2022/08/23 09:23:17;;;;;;;6.75;3.50;;;24.30;99.90;;;;;;5031885;28;20095;-72
2022/08/23 09:25:55;;;;;;;7.95;4.18;;;24.40;99.90;;;;;;5036882;28;20135;-71
2022/08/23 09:28:20;;;;;;;11.35;4.55;;;24.60;99.90;;;;;;5038302;28;20034;-71
2022/08/23 09:30:48;;;;;;;6.43;3.63;;;24.30;99.90;;;;;;5020474;28;20048;-72
2022/08/23 09:33:16;;;;;;;11.20;4.13;;;24.90;99.90;;;;;;5038072;28;20134;-71
2022/08/23 09:35:42;;;;;;;6.78;3.88;;;24.70;99.90;;;;;;5036692;28;20057;-72
2022/08/23 09:38:19;;;;;;;8.32;3.90;;;25.10;99.90;;;;;;5020294;28;20045;-71
2022/08/23 09:40:48;;;;;;;9.65;3.90;;;25.30;99.90;;;;;;5043151;28;20063;-72
2022/08/23 09:43:24;;;;;;;6.90;3.08;;;25.20;99.90;;;;;;5047830;28;20483;-72
2022/08/23 09:45:50;;;;;;;6.88;3.72;;;25.40;99.90;;;;;;5037719;28;20049;-72
2022/08/23 09:48:42;;;;;;;7.32;3.58;;;24.50;99.90;;;;;;5036650;28;20402;-72
2022/08/23 09:51:34;;;;;;;8.10;4.07;;;25.60;99.90;;;;;;5036616;28;20064;-72
2022/08/23 09:54:05;;;;;;;7.57;3.50;;;25.50;99.90;;;;;;5036042;28;20099;-72
2022/08/23 09:56:36;;;;;;;5.65;3.35;;;25.50;99.90;;;;;;5037899;28;20094;-72
2022/08/23 09:59:02;;;;;;;6.38;3.95;;;25.70;99.90;;;;;;5036795;28;20041;-72
2022/08/23 10:01:30;;;;;;;10.18;3.20;;;25.70;99.90;;;;;;5053195;28;20116;-72
2022/08/23 10:04:21;;;;;;;5.53;3.78;;;25.80;99.90;;;;;;5036028;28;20041;-72
2022/08/23 10:06:48;;;;;;;5.72;2.85;;;25.50;99.90;;;;;;5037743;28;20120;-72
2022/08/23 10:09:34;;;;;;;9.82;3.80;;;25.70;99.90;;;;;;5036699;28;20087;-72
2022/08/23 10:12:00;;;;;;;7.43;3.42;;;26.00;99.90;;;;;;5036600;28;20041;-72
2022/08/23 10:14:28;;;;;;;5.18;3.22;;;25.50;99.90;;;;;;5037485;28;20041;-72
2022/08/23 10:17:15;;;;;;;9.60;4.03;;;25.80;99.90;;;;;;5036517;28;20033;-72
2022/08/23 10:19:53;;;;;;;9.65;4.18;;;25.80;99.90;;;;;;5037916;28;20049;-72
2022/08/23 10:22:27;;;;;;;5.47;3.88;;;25.90;99.90;;;;;;5036584;28;20038;-72
2022/08/23 10:25:27;;;;;;;10.15;3.60;;;26.00;99.90;;;;;;5036168;28;20041;-72
2022/08/23 10:31:06;;;;;;;10.02;3.65;;;26.50;99.90;;;;;;4984497;28;20133;-73
2022/08/23 10:33:58;;;;;;;8.32;4.60;;;26.70;99.90;;;;;;5036224;28;20077;-73
2022/08/23 10:36:56;;;;;;;8.00;3.15;;;26.50;99.40;;;;;;5032406;28;20045;-72
2022/08/23 10:39:30;;;;;;;7.65;3.47;;;26.60;99.20;;;;;;5040662;28;20040;-71
2022/08/23 10:42:10;;;;;;;4.15;3.00;;;26.60;99.50;;;;;;5038215;28;20202;-73
2022/08/23 10:44:45;;;;;;;7.93;3.05;;;26.80;99.10;;;;;;5048534;28;20059;-73
2022/08/23 10:47:26;;;;;;;7.28;3.40;;;26.80;99.70;;;;;;5056705;28;20498;-73
2022/08/23 10:49:53;;;;;;;7.10;2.65;;;26.80;98.70;;;;;;5050067;28;20517;-73
2022/08/23 10:52:25;;;;;;;6.60;3.28;;;27.60;99.40;;;;;;5054036;28;20041;-73
2022/08/23 10:55:15;;;;;;;7.38;3.80;;;26.90;98.90;;;;;;5054537;28;20040;-73
2022/08/23 10:57:44;;;;;;;6.78;3.00;;;27.20;99.00;;;;;;5057749;28;20049;-73
2022/08/23 11:00:22;;;;;;;6.05;2.30;;;27.40;99.50;;;;;;5058231;28;20148;-73
2022/08/23 11:03:20;;;;;;;6.63;2.75;;;27.30;98.40;;;;;;5060569;28;20111;-73
2022/08/23 11:06:24;;;;;;;6.15;2.90;;;27.40;97.70;;;;;;5058361;28;20070;-73
2022/08/23 11:09:27;;;;;;;6.88;3.00;;;27.50;97.40;;;;;;5058490;28;20048;-72
2022/08/23 11:12:26;;;;;;;6.50;2.33;;;27.40;97.80;;;;;;5053219;28;20036;-72
2022/08/23 11:14:55;;;;;;;7.63;2.95;;;27.60;97.20;;;;;;5034133;28;20037;-72
2022/08/23 11:17:33;;;;;;;3.67;2.30;;;27.80;97.40;;;;;;5047758;28;20107;-72
2022/08/23 11:20:03;;;;;;;4.60;2.25;;;28.00;97.10;;;;;;5036382;28;20454;-70
2022/08/23 11:22:53;;;;;;;6.70;2.47;;;27.90;96.70;;;;;;5040031;28;20129;-72
2022/08/23 11:25:18;;;;;;;5.72;2.40;;;27.70;97.00;;;;;;5013314;28;20098;-72
2022/08/23 11:27:45;;;;;;;6.70;2.17;;;27.70;95.90;;;;;;5046363;28;20086;-71
2022/08/23 11:30:31;;;;;;;4.70;2.47;;;27.90;96.70;;;;;;5039520;28;20453;-72
2022/08/23 11:33:25;;;;;;;6.93;2.35;;;27.70;96.00;;;;;;5033223;28;20514;-72
2022/08/23 11:36:15;;;;;;;4.25;2.17;;;28.00;95.80;;;;;;5033000;28;20167;-72
2022/08/23 11:38:59;;;;;;;5.60;2.00;;;28.00;95.90;;;;;;5033219;28;20045;-72
2022/08/23 11:41:31;;;;;;;7.50;2.45;;;28.10;96.00;;;;;;5031860;28;20402;-75
2022/08/23 11:44:03;;;;;;;4.43;2.00;;;28.20;95.20;;;;;;5031238;28;20041;-71
2022/08/23 11:46:49;;;;;;;5.28;2.03;;;28.40;95.50;;;;;;5030959;28;20067;-72
2022/08/23 11:49:29;;;;;;;4.60;2.38;;;28.20;95.60;;;;;;5041610;28;20076;-72
2022/08/23 11:52:23;;;;;;;4.63;2.05;;;28.80;95.20;;;;;;5046618;28;20052;-72
2022/08/23 11:55:11;;;;;;;2.25;1.55;;;28.40;94.80;;;;;;5050725;28;20072;-72
2022/08/23 11:57:42;;;;;;;3.03;2.22;;;28.40;95.60;;;;;;5040267;28;20037;-72
2022/08/23 12:00:11;;;;;;;4.43;2.22;;;28.20;95.20;;;;;;5032154;28;20467;-73
2022/08/23 12:02:54;;;;;;;9.10;2.50;;;28.50;95.00;;;;;;5040433;28;20087;-72
2022/08/23 12:05:32;;;;;;;6.40;2.58;;;28.80;95.30;;;;;;5030387;28;20037;-72
2022/08/23 12:08:01;;;;;;;6.43;1.88;;;28.60;94.60;;;;;;5032119;28;20077;-72
2022/08/23 12:10:41;;;;;;;7.50;2.28;;;28.60;95.00;;;;;;5034215;28;20089;-72
2022/08/23 12:13:19;;;;;;;5.88;2.40;;;28.60;95.60;;;;;;5033154;28;20040;-71
2022/08/23 12:16:12;;;;;;;6.18;2.40;;;28.60;95.10;;;;;;5048026;28;20418;-72
2022/08/23 12:18:42;;;;;;;;;;;28.80;94.90;;;;;;5034775;28;20379;-71
2022/08/23 12:21:20;;;;;;;4.15;2.30;;;28.70;94.60;;;;;;5051408;28;19921;-71
2022/08/23 12:23:55;;;;;;;5.30;2.50;;;28.90;94.70;;;;;;5034358;28;20109;-71
2022/08/23 12:26:30;;;;;;;5.85;2.20;;;28.90;95.00;;;;;;5031543;28;20056;-71
2022/08/23 12:29:02;;;;;;;6.65;2.42;;;29.00;94.60;;;;;;5013820;28;20038;-72
2022/08/23 12:31:38;;;;;;;3.58;2.08;;;29.90;95.10;;;;;;5014714;28;20148;-72
2022/08/23 12:34:14;;;;;;;6.63;2.53;;;30.20;94.90;;;;;;5033796;28;20056;-71
2022/08/23 12:36:53;;;;;;;6.72;2.30;;;29.00;94.20;;;;;;5049986;28;20045;-71
2022/08/23 12:39:31;;;;;;;6.13;2.53;;;29.30;94.40;;;;;;5052129;28;20077;-71
2022/08/23 12:42:06;;;;;;;4.03;2.03;;;30.10;94.70;;;;;;5043079;28;20052;-71
2022/08/23 12:44:32;;;;;;;3.95;2.42;;;29.20;93.90;;;;;;5047727;28;20037;-72
2022/08/23 12:47:10;;;;;;;8.38;2.75;;;30.00;94.50;;;;;;5043136;28;20416;-72
2022/08/23 12:49:36;;;;;;;8.00;2.35;;;29.10;93.90;;;;;;5050576;28;20408;-72
2022/08/23 12:52:07;;;;;;;6.57;2.78;;;29.10;94.20;;;;;;5048778;28;20037;-71
2022/08/23 12:54:45;;;;;;;7.53;2.92;;;28.90;94.80;;;;;;5017480;28;20043;-72
2022/08/23 12:57:20;;;;;;;8.68;2.50;;;29.60;94.80;;;;;;5030166;28;20072;-72
2022/08/23 13:00:00;;;;;;;5.82;2.65;;;29.50;94.80;;;;;;5040072;28;20495;-72
2022/08/23 13:02:29;;;;;;;5.47;2.20;;;29.20;94.40;;;;;;5038032;28;20510;-71
2022/08/23 13:05:01;;;;;;;6.78;2.50;;;29.30;94.50;;;;;;5045208;28;20049;-71
2022/08/23 13:07:27;;;;;;;6.15;2.55;;;29.20;94.20;;;;;;5043988;28;20044;-72
2022/08/23 13:09:53;;;;;;;4.45;2.55;;;29.30;94.30;;;;;;5051471;28;20457;-71
2022/08/23 13:12:19;;;;;;;5.05;2.65;;;29.50;94.40;;;;;;5022944;28;20483;-72